createdAt,value
2023-05-03T00:00:55.615Z,45.79
2023-05-03T00:03:23.936Z,45.50
2023-05-03T00:05:52.020Z,45.73
2023-05-03T00:08:22.138Z,45.82
2023-05-03T00:10:49.844Z,45.73
2023-05-03T00:13:17.564Z,45.56
2023-05-03T00:15:45.377Z,45.53
2023-05-03T00:18:13.372Z,45.52
2023-05-03T00:20:41.253Z,45.77
2023-05-03T00:23:08.909Z,45.68
2023-05-03T00:25:36.829Z,45.54
2023-05-03T00:28:04.828Z,45.44
2023-05-03T00:30:32.632Z,44.98
2023-05-03T00:33:00.549Z,45.17
2023-05-03T00:35:28.309Z,45.30
2023-05-03T00:37:56.107Z,45.34
2023-05-03T00:40:23.884Z,45.42
2023-05-03T00:42:51.814Z,45.66
2023-05-03T00:45:22.211Z,45.39
2023-05-03T00:47:50.170Z,45.35
2023-05-03T00:50:18.240Z,45.45
2023-05-03T00:52:46.359Z,45.18
2023-05-03T00:55:15.848Z,45.43
2023-05-03T00:57:44.545Z,45.40
2023-05-03T01:00:13.755Z,45.63
2023-05-03T01:02:41.763Z,45.44
2023-05-03T01:05:10.951Z,45.32
2023-05-03T01:07:44.050Z,45.32
2023-05-03T01:10:23.535Z,45.56
2023-05-03T01:12:54.283Z,45.16
2023-05-03T01:15:57.001Z,45.16
2023-05-03T01:18:32.549Z,45.74
2023-05-03T01:21:02.840Z,45.54
2023-05-03T01:23:51.776Z,45.42
2023-05-03T01:26:20.693Z,45.47
2023-05-03T01:28:48.659Z,45.67
2023-05-03T01:31:43.314Z,45.81
2023-05-03T01:34:17.150Z,45.93
2023-05-03T01:36:46.100Z,46.04
2023-05-03T01:39:24.916Z,45.84
2023-05-03T01:41:53.728Z,46.20
2023-05-03T01:44:23.187Z,45.96
2023-05-03T01:46:50.894Z,46.18
2023-05-03T01:49:18.702Z,46.08
2023-05-03T01:51:46.534Z,46.11
2023-05-03T01:54:14.412Z,46.14
2023-05-03T01:56:42.082Z,45.91
2023-05-03T01:59:09.979Z,46.45
2023-05-03T02:01:37.810Z,46.63
2023-05-03T02:04:05.593Z,46.71
2023-05-03T02:06:33.545Z,46.35
2023-05-03T02:09:01.552Z,46.74
2023-05-03T02:11:29.321Z,46.54
2023-05-03T02:13:57.107Z,46.95
2023-05-03T02:16:24.823Z,46.69
2023-05-03T02:18:54.062Z,46.46
2023-05-03T02:21:21.831Z,46.92
2023-05-03T02:23:49.680Z,47.01
2023-05-03T02:26:17.542Z,47.28
2023-05-03T02:28:45.228Z,47.10
2023-05-03T02:31:16.203Z,47.29
2023-05-03T02:33:44.527Z,47.49
2023-05-03T02:36:12.280Z,47.32
2023-05-03T02:38:39.987Z,47.33
2023-05-03T02:41:08.235Z,47.06
2023-05-03T02:43:35.893Z,47.30
2023-05-03T02:46:03.785Z,47.32
2023-05-03T02:48:32.032Z,47.26
2023-05-03T02:51:00.061Z,47.27
2023-05-03T02:53:27.889Z,47.30
2023-05-03T02:55:59.587Z,47.40
2023-05-03T02:58:27.512Z,47.42
2023-05-03T03:00:55.736Z,47.55
2023-05-03T03:03:26.454Z,47.20
2023-05-03T03:05:54.103Z,47.33
2023-05-03T03:08:23.187Z,47.52
2023-05-03T03:10:51.672Z,47.46
2023-05-03T03:13:19.564Z,47.19
2023-05-03T03:15:47.345Z,47.23
2023-05-03T03:18:16.059Z,47.32
2023-05-03T03:20:44.917Z,47.04
2023-05-03T03:23:12.899Z,46.96
2023-05-03T03:25:42.579Z,47.09
2023-05-03T03:28:10.315Z,46.96
2023-05-03T03:30:39.032Z,46.82
2023-05-03T03:33:17.369Z,46.47
2023-05-03T03:35:45.820Z,46.97
2023-05-03T03:38:13.953Z,46.87
2023-05-03T03:40:49.750Z,46.64
2023-05-03T03:43:17.613Z,46.45
2023-05-03T03:45:45.979Z,46.11
2023-05-03T03:48:16.299Z,46.32
2023-05-03T03:50:44.358Z,46.04
2023-05-03T03:53:13.553Z,45.61
2023-05-03T03:55:41.935Z,45.47
2023-05-03T03:58:09.991Z,45.47
2023-05-03T04:00:38.677Z,45.68
2023-05-03T04:03:13.337Z,45.09
2023-05-03T04:05:41.128Z,44.64
2023-05-03T04:08:09.585Z,45.10
2023-05-03T04:10:38.928Z,44.92
2023-05-03T04:13:09.680Z,44.23
2023-05-03T04:15:37.659Z,44.52
2023-05-03T04:18:06.787Z,44.17
2023-05-03T04:20:39.007Z,43.85
2023-05-03T04:23:08.674Z,43.58
2023-05-03T04:25:37.238Z,43.62
2023-05-03T04:28:13.837Z,43.74
2023-05-03T04:30:47.188Z,43.63
2023-05-03T04:33:17.792Z,43.51
2023-05-03T04:35:45.818Z,44.00
2023-05-03T04:38:15.882Z,43.64
2023-05-03T04:40:44.294Z,43.93
2023-05-03T04:43:13.059Z,43.68
2023-05-03T04:45:45.218Z,43.23
2023-05-03T04:48:18.328Z,43.28
2023-05-03T04:50:46.493Z,43.36
2023-05-03T04:53:16.622Z,43.79
2023-05-03T04:55:48.284Z,44.61
2023-05-03T04:58:16.039Z,44.49
2023-05-03T05:00:46.239Z,44.64
2023-05-03T05:03:20.178Z,44.93
2023-05-03T05:05:48.659Z,44.60
2023-05-03T05:08:16.681Z,45.07
2023-05-03T05:10:50.688Z,44.90
2023-05-03T05:13:23.060Z,44.96
2023-05-03T05:15:54.053Z,45.26
2023-05-03T05:18:22.905Z,45.08
2023-05-03T05:20:52.408Z,45.24
2023-05-03T05:23:21.210Z,46.10
2023-05-03T05:25:49.552Z,46.18
2023-05-03T05:28:18.501Z,46.00
2023-05-03T05:30:47.647Z,45.72
2023-05-03T05:33:20.402Z,45.84
2023-05-03T05:35:53.861Z,45.61
2023-05-03T05:38:28.168Z,45.55
2023-05-03T05:40:58.855Z,46.08
2023-05-03T05:43:26.733Z,46.06
2023-05-03T05:45:56.033Z,46.22
2023-05-03T05:48:25.528Z,46.69
2023-05-03T05:50:53.530Z,46.91
2023-05-03T05:53:21.392Z,46.52
2023-05-03T05:55:56.625Z,45.96
2023-05-03T05:58:26.389Z,46.09
2023-05-03T06:01:01.513Z,46.69
2023-05-03T06:03:31.930Z,46.44
2023-05-03T06:06:02.556Z,46.63
2023-05-03T06:08:30.402Z,46.35
2023-05-03T06:11:01.290Z,46.63
2023-05-03T06:13:33.870Z,46.49
2023-05-03T06:16:02.709Z,46.10
2023-05-03T06:18:30.541Z,46.17
2023-05-03T06:20:58.479Z,46.42
2023-05-03T06:23:28.305Z,46.46
2023-05-03T06:25:57.684Z,46.55
2023-05-03T06:28:26.018Z,46.35
2023-05-03T06:30:56.180Z,46.43
2023-05-03T06:33:24.208Z,46.17
2023-05-03T06:35:53.178Z,46.79
2023-05-03T06:38:21.462Z,46.87
2023-05-03T06:40:50.557Z,46.84
2023-05-03T06:43:18.553Z,46.44
2023-05-03T06:46:06.945Z,46.03
2023-05-03T06:48:34.609Z,45.83
2023-05-03T06:51:02.608Z,46.11
2023-05-03T06:53:30.544Z,51.28
2023-05-03T06:55:58.226Z,51.54
2023-05-03T06:58:26.028Z,50.11
2023-05-03T07:00:54.094Z,50.14
2023-05-03T07:03:21.978Z,49.40
2023-05-03T07:05:49.706Z,48.70
2023-05-03T07:08:17.887Z,46.65
2023-05-03T07:10:45.632Z,46.84
2023-05-03T07:13:14.380Z,47.63
2023-05-03T07:15:42.544Z,48.18
2023-05-03T07:18:10.358Z,48.37
2023-05-03T07:20:38.644Z,47.46
2023-05-03T07:23:07.525Z,48.31
2023-05-03T07:25:35.271Z,47.95
2023-05-03T07:28:03.624Z,47.56
2023-05-03T07:30:31.604Z,44.94
2023-05-03T07:32:59.571Z,44.22
2023-05-03T07:35:27.418Z,44.62
2023-05-03T07:37:55.377Z,44.31
2023-05-03T07:40:23.465Z,43.92
2023-05-03T07:42:52.294Z,43.74
2023-05-03T07:45:21.039Z,43.56
2023-05-03T07:47:48.914Z,43.52
2023-05-03T07:50:20.657Z,43.35
2023-05-03T07:52:51.948Z,43.18
2023-05-03T07:55:20.660Z,43.45
2023-05-03T07:57:48.605Z,43.12
2023-05-03T08:00:18.189Z,43.03
2023-05-03T08:02:46.093Z,43.03
2023-05-03T08:05:15.119Z,43.16
2023-05-03T08:07:43.106Z,42.69
2023-05-03T08:10:11.428Z,43.65
2023-05-03T08:12:39.515Z,43.77
2023-05-03T08:15:08.416Z,43.56
2023-05-03T08:17:46.614Z,43.99
2023-05-03T08:20:14.816Z,43.54
2023-05-03T08:22:43.030Z,43.13
2023-05-03T08:25:11.622Z,43.56
2023-05-03T08:27:40.198Z,43.70
2023-05-03T08:30:08.789Z,43.94
2023-05-03T08:32:36.707Z,43.96
2023-05-03T08:35:07.215Z,43.94
2023-05-03T08:37:40.244Z,43.44
2023-05-03T08:40:11.848Z,43.53
2023-05-03T08:42:46.397Z,43.13
2023-05-03T08:45:17.646Z,43.45
2023-05-03T08:47:46.107Z,43.49
2023-05-03T08:50:15.626Z,43.33
2023-05-03T08:52:44.522Z,42.56
2023-05-03T08:55:12.849Z,42.63
2023-05-03T08:57:41.830Z,42.25
2023-05-03T09:00:11.346Z,42.36
2023-05-03T09:02:40.411Z,42.68
2023-05-03T09:05:17.602Z,42.44
2023-05-03T09:08:13.924Z,42.50
2023-05-03T09:10:43.121Z,43.07
2023-05-03T09:13:12.226Z,43.23
2023-05-03T09:15:40.230Z,42.97
2023-05-03T09:18:19.083Z,42.73
2023-05-03T09:20:52.841Z,42.46
2023-05-03T09:23:26.988Z,42.70
2023-05-03T09:25:55.041Z,43.06
2023-05-03T09:28:22.857Z,43.20
2023-05-03T09:31:04.000Z,43.21
2023-05-03T09:33:31.871Z,43.70
2023-05-03T09:36:04.929Z,43.94
2023-05-03T09:38:35.073Z,44.41
2023-05-03T09:41:06.027Z,44.05
2023-05-03T09:43:35.547Z,44.00
2023-05-03T09:46:13.482Z,44.26
2023-05-03T09:48:41.611Z,43.11
2023-05-03T09:51:11.555Z,42.88
2023-05-03T09:53:40.738Z,42.25
2023-05-03T09:56:13.236Z,42.20
2023-05-03T09:58:42.256Z,42.46
2023-05-03T10:01:11.068Z,42.33
2023-05-03T10:03:44.212Z,41.95
2023-05-03T10:06:30.284Z,42.03
2023-05-03T10:09:16.570Z,42.36
2023-05-03T10:11:49.087Z,43.11
2023-05-03T10:14:17.191Z,43.34
2023-05-03T10:16:48.686Z,43.46
2023-05-03T10:19:21.717Z,43.58
2023-05-03T10:22:03.722Z,44.24
2023-05-03T10:24:32.408Z,44.06
2023-05-03T10:27:00.814Z,45.08
2023-05-03T10:29:37.809Z,46.07
2023-05-03T10:32:06.037Z,46.48
2023-05-03T10:34:35.954Z,46.39
2023-05-03T10:37:09.662Z,48.02
2023-05-03T10:39:46.805Z,48.13
2023-05-03T10:42:14.811Z,45.94
2023-05-03T10:44:55.552Z,44.99
2023-05-03T10:47:24.713Z,44.29
2023-05-03T10:50:21.186Z,42.25
2023-05-03T10:52:49.137Z,42.63
2023-05-03T10:55:22.231Z,41.36
2023-05-03T10:57:54.003Z,41.02
2023-05-03T11:00:36.171Z,39.87
2023-05-03T11:03:18.962Z,38.96
2023-05-03T11:05:49.604Z,39.25
2023-05-03T11:08:22.498Z,38.31
2023-05-03T11:10:57.568Z,38.92
2023-05-03T11:13:26.137Z,38.50
2023-05-03T11:15:57.280Z,38.52
2023-05-03T11:18:27.835Z,38.16
2023-05-03T11:20:56.147Z,38.22
2023-05-03T11:23:28.898Z,38.10
2023-05-03T11:26:00.170Z,38.26
2023-05-03T11:28:28.060Z,38.70
2023-05-03T11:30:55.730Z,38.63
2023-05-03T11:33:23.622Z,38.38
2023-05-03T11:35:56.520Z,38.23
2023-05-03T11:38:24.393Z,38.02
2023-05-03T11:40:52.776Z,38.78
2023-05-03T11:43:20.626Z,38.80
2023-05-03T11:48:41.859Z,39.60
2023-05-03T11:51:14.125Z,39.71
2023-05-03T11:53:44.334Z,39.56
2023-05-03T11:56:19.206Z,39.99
2023-05-03T11:58:58.854Z,39.32
2023-05-03T12:01:29.133Z,39.15
2023-05-03T12:04:04.853Z,39.63
2023-05-03T12:06:35.742Z,38.97
2023-05-03T12:09:05.406Z,38.78
2023-05-03T12:11:44.729Z,36.44
2023-05-03T12:14:13.418Z,36.21
2023-05-03T12:16:51.185Z,35.95
2023-05-03T12:19:32.191Z,35.57
2023-05-03T12:22:22.873Z,34.69
2023-05-03T12:24:49.801Z,35.14
2023-05-03T12:27:19.639Z,34.57
2023-05-03T12:30:01.830Z,34.21
2023-05-03T12:32:30.024Z,35.15
2023-05-03T12:34:58.658Z,35.67
2023-05-03T12:37:33.253Z,36.67
2023-05-03T12:40:29.285Z,37.55
2023-05-03T12:42:50.038Z,37.99
2023-05-03T12:45:21.176Z,38.41
2023-05-03T12:47:50.321Z,38.32
2023-05-03T12:50:18.982Z,38.69
2023-05-03T12:52:47.055Z,38.48
2023-05-03T12:55:17.949Z,37.84
2023-05-03T12:57:53.620Z,38.03
2023-05-03T13:00:35.809Z,38.45
2023-05-03T13:05:40.844Z,38.52
2023-05-03T13:08:11.484Z,39.30
2023-05-03T13:10:41.878Z,39.83
2023-05-03T13:13:09.724Z,39.98
2023-05-03T13:15:38.271Z,40.09
2023-05-03T13:18:07.668Z,40.78
2023-05-03T13:20:37.119Z,41.00
2023-05-03T13:23:04.957Z,40.43
2023-05-03T13:25:32.800Z,40.84
2023-05-03T13:28:01.806Z,41.26
2023-05-03T13:30:29.870Z,41.60
2023-05-03T13:32:57.852Z,41.57
2023-05-03T13:35:26.160Z,41.42
2023-05-03T13:37:53.884Z,42.12
2023-05-03T13:40:21.679Z,42.56
2023-05-03T13:42:49.453Z,42.55
2023-05-03T13:45:18.296Z,42.52
2023-05-03T13:50:16.806Z,42.72
2023-05-03T13:52:44.969Z,42.98
2023-05-03T13:55:12.688Z,43.24
2023-05-03T13:57:44.134Z,43.34
2023-05-03T14:00:12.472Z,43.69
2023-05-03T14:02:40.402Z,43.50
2023-05-03T14:05:08.688Z,44.03
2023-05-03T14:07:38.248Z,43.62
2023-05-03T14:10:07.028Z,44.06
2023-05-03T14:12:36.851Z,43.49
2023-05-03T14:15:08.548Z,43.07
2023-05-03T14:17:36.365Z,43.17
2023-05-03T14:20:08.497Z,43.01
2023-05-03T14:22:36.258Z,43.45
2023-05-03T14:25:04.506Z,43.39
2023-05-03T14:27:33.325Z,43.35
2023-05-03T14:30:01.275Z,42.75
2023-05-03T14:32:29.706Z,43.30
2023-05-03T14:34:57.493Z,43.16
2023-05-03T14:37:25.159Z,43.27
2023-05-03T14:39:53.006Z,43.80
2023-05-03T14:42:20.765Z,43.55
2023-05-03T14:44:48.445Z,43.69
2023-05-03T14:47:16.683Z,43.93
2023-05-03T14:49:44.426Z,43.71
2023-05-03T14:52:12.038Z,43.52
2023-05-03T14:54:39.781Z,43.61
2023-05-03T14:57:08.895Z,43.29
2023-05-03T14:59:36.642Z,43.15
2023-05-03T15:02:04.361Z,42.90
2023-05-03T15:04:32.163Z,42.52
2023-05-03T15:07:04.060Z,42.96
2023-05-03T15:09:31.961Z,43.28
2023-05-03T15:12:02.204Z,43.75
2023-05-03T15:14:30.311Z,44.21
2023-05-03T15:16:58.267Z,44.26
2023-05-03T15:19:26.937Z,44.73
2023-05-03T15:21:55.128Z,44.66
2023-05-03T15:24:23.171Z,44.97
2023-05-03T15:26:51.699Z,45.31
2023-05-03T15:29:19.531Z,45.30
2023-05-03T15:31:47.527Z,44.78
2023-05-03T15:34:15.482Z,44.75
2023-05-03T15:36:43.270Z,44.75
2023-05-03T15:39:11.279Z,44.85
2023-05-03T15:41:39.614Z,44.69
2023-05-03T15:44:09.890Z,44.64
2023-05-03T15:46:38.653Z,44.96
2023-05-03T15:49:07.783Z,44.50
2023-05-03T15:51:35.689Z,43.98
2023-05-03T15:54:04.024Z,43.84
2023-05-03T15:56:32.470Z,44.16
2023-05-03T15:59:00.054Z,44.17
2023-05-03T16:01:27.949Z,44.22
2023-05-03T16:03:56.138Z,44.53
2023-05-03T16:06:23.870Z,44.26
2023-05-03T16:08:52.842Z,44.67
2023-05-03T16:11:20.620Z,44.89
2023-05-03T16:13:48.409Z,44.93
2023-05-03T16:16:16.341Z,44.61
2023-05-03T16:18:44.266Z,44.67
2023-05-03T16:21:12.016Z,44.47
2023-05-03T16:23:39.758Z,45.07
2023-05-03T16:26:18.295Z,44.70
2023-05-03T16:28:47.256Z,44.37
2023-05-03T16:31:19.040Z,44.40
2023-05-03T16:33:46.851Z,44.05
2023-05-03T16:36:14.973Z,44.21
2023-05-03T16:38:42.597Z,43.85
2023-05-03T16:41:10.597Z,43.79
2023-05-03T16:43:38.786Z,42.84
2023-05-03T16:46:07.416Z,42.88
2023-05-03T16:48:35.249Z,43.43
2023-05-03T16:51:02.963Z,44.11
2023-05-03T16:53:31.615Z,43.30
2023-05-03T16:55:59.836Z,42.64
2023-05-03T16:58:27.841Z,41.92
2023-05-03T17:00:56.433Z,41.89
2023-05-03T17:03:25.575Z,42.19
2023-05-03T17:05:54.270Z,42.10
2023-05-03T17:08:21.992Z,42.26
2023-05-03T17:10:50.177Z,42.75
2023-05-03T17:13:18.164Z,43.32
2023-05-03T17:15:48.163Z,43.47
2023-05-03T17:18:16.651Z,43.41
2023-05-03T17:20:44.483Z,43.70
2023-05-03T17:23:12.922Z,43.20
2023-05-03T17:25:42.739Z,43.17
2023-05-03T17:28:10.360Z,43.66
2023-05-03T17:30:39.056Z,43.30
2023-05-03T17:33:08.000Z,44.97
2023-05-03T17:35:35.968Z,45.18
2023-05-03T17:38:05.341Z,44.83
2023-05-03T17:40:33.239Z,44.34
2023-05-03T17:43:01.292Z,44.32
2023-05-03T17:45:29.050Z,44.33
2023-05-03T17:47:58.905Z,44.33
2023-05-03T17:50:26.632Z,44.60
2023-05-03T17:52:54.881Z,44.46
2023-05-03T17:55:22.773Z,45.24
2023-05-03T17:57:51.088Z,45.06
2023-05-03T18:00:21.318Z,44.92
2023-05-03T18:02:49.658Z,44.58
2023-05-03T18:05:17.814Z,44.38
2023-05-03T18:07:45.580Z,44.04
2023-05-03T18:10:16.519Z,44.58
2023-05-03T18:12:44.303Z,44.38
2023-05-03T18:15:12.416Z,44.39
2023-05-03T18:17:40.224Z,44.72
2023-05-03T18:20:09.798Z,44.69
2023-05-03T18:22:37.981Z,44.95
2023-05-03T18:25:07.632Z,44.94
2023-05-03T18:27:37.861Z,45.29
2023-05-03T18:30:06.994Z,45.12
2023-05-03T18:32:35.125Z,45.38
2023-05-03T18:35:03.569Z,45.68
2023-05-03T18:37:31.503Z,45.83
2023-05-03T18:39:59.495Z,45.75
2023-05-03T18:42:27.455Z,46.27
2023-05-03T18:44:55.224Z,46.22
2023-05-03T18:47:23.265Z,47.19
2023-05-03T18:50:01.114Z,47.48
2023-05-03T18:52:28.896Z,48.08
2023-05-03T18:54:56.712Z,48.10
2023-05-03T18:57:24.529Z,48.40
2023-05-03T18:59:59.955Z,48.42
2023-05-03T19:02:31.621Z,47.87
2023-05-03T19:05:00.161Z,47.53
2023-05-03T19:07:29.251Z,47.29
2023-05-03T19:09:57.673Z,47.26
2023-05-03T19:12:25.621Z,46.74
2023-05-03T19:14:53.376Z,47.12
2023-05-03T19:17:21.472Z,47.25
2023-05-03T19:19:49.193Z,47.01
2023-05-03T19:22:16.973Z,47.54
2023-05-03T19:24:44.818Z,47.99
2023-05-03T19:27:12.947Z,47.97
2023-05-03T19:29:40.755Z,48.13
2023-05-03T19:32:08.509Z,48.47
2023-05-03T19:34:36.579Z,48.87
2023-05-03T19:37:05.303Z,48.81
2023-05-03T19:39:35.829Z,48.70
2023-05-03T19:42:04.060Z,49.25
2023-05-03T19:44:32.144Z,49.36
2023-05-03T19:46:59.808Z,49.45
2023-05-03T19:49:27.465Z,50.26
2023-05-03T19:51:56.201Z,49.40
2023-05-03T19:54:23.952Z,49.61
2023-05-03T19:56:51.736Z,49.68
2023-05-03T19:59:19.858Z,49.36
2023-05-03T20:01:47.724Z,49.52
2023-05-03T20:04:15.582Z,50.08
2023-05-03T20:06:43.650Z,49.46
2023-05-03T20:09:13.178Z,49.91
2023-05-03T20:11:41.403Z,49.75
2023-05-03T20:14:09.256Z,49.75
2023-05-03T20:16:39.220Z,49.59
2023-05-03T20:19:07.167Z,50.44
2023-05-03T20:21:34.846Z,50.12
2023-05-03T20:24:04.814Z,50.27
2023-05-03T20:26:32.636Z,50.36
2023-05-03T20:29:01.071Z,50.06
2023-05-03T20:31:28.945Z,50.28
2023-05-03T20:33:56.989Z,50.64
2023-05-03T20:36:24.714Z,50.16
2023-05-03T20:38:52.738Z,50.28
2023-05-03T20:41:20.763Z,50.91
2023-05-03T20:43:48.525Z,50.72
2023-05-03T20:46:18.590Z,50.43
2023-05-03T20:48:46.406Z,49.80
2023-05-03T20:51:15.041Z,50.46
2023-05-03T20:53:42.864Z,50.31
2023-05-03T20:56:11.648Z,50.61
2023-05-03T20:58:39.593Z,50.73
2023-05-03T21:01:08.264Z,50.02
2023-05-03T21:03:36.388Z,50.20
2023-05-03T21:06:05.734Z,50.24
2023-05-03T21:08:33.513Z,50.55
2023-05-03T21:11:01.441Z,50.25
2023-05-03T21:13:29.244Z,50.29
2023-05-03T21:15:57.064Z,50.63
2023-05-03T21:18:25.221Z,51.04
2023-05-03T21:20:54.401Z,51.01
2023-05-03T21:23:22.285Z,50.62
2023-05-03T21:25:50.084Z,50.93
2023-05-03T21:28:17.762Z,50.65
2023-05-03T21:30:48.649Z,51.09
2023-05-03T21:33:16.776Z,51.06
2023-05-03T21:35:44.765Z,50.82
2023-05-03T21:38:12.588Z,51.50
2023-05-03T21:40:40.413Z,51.50
2023-05-03T21:43:10.008Z,51.57
2023-05-03T21:45:37.796Z,51.73
2023-05-03T21:48:06.516Z,51.92
2023-05-03T21:50:38.075Z,51.51
2023-05-03T21:53:07.264Z,51.70
2023-05-03T21:55:34.889Z,51.93
2023-05-03T21:58:02.594Z,51.96
2023-05-03T22:00:31.959Z,52.30
2023-05-03T22:02:59.865Z,52.19
2023-05-03T22:05:28.525Z,52.54
2023-05-03T22:07:56.279Z,52.42
2023-05-03T22:10:24.010Z,52.38
2023-05-03T22:12:51.940Z,52.52
2023-05-03T22:15:20.568Z,52.16
2023-05-03T22:17:48.481Z,52.37
2023-05-03T22:20:16.453Z,52.51
2023-05-03T22:22:44.227Z,52.50
2023-05-03T22:25:23.145Z,52.93
2023-05-03T22:27:51.934Z,52.41
2023-05-03T22:30:20.551Z,52.59
2023-05-03T22:32:48.296Z,52.32
2023-05-03T22:35:16.219Z,52.54
2023-05-03T22:37:43.966Z,52.53
2023-05-03T22:40:12.238Z,52.53
2023-05-03T22:42:40.041Z,52.74
2023-05-03T22:45:09.038Z,52.71
2023-05-03T22:47:36.935Z,52.25
2023-05-03T22:50:05.885Z,52.36
2023-05-03T22:52:33.881Z,52.50
2023-05-03T22:55:02.379Z,52.66
2023-05-03T22:57:30.351Z,52.44
2023-05-03T22:59:58.250Z,52.44
2023-05-03T23:02:26.882Z,52.65
2023-05-03T23:04:55.014Z,52.68
2023-05-03T23:07:25.230Z,52.66
2023-05-03T23:10:02.816Z,52.95
2023-05-03T23:12:31.867Z,52.52
2023-05-03T23:14:59.887Z,52.68
2023-05-03T23:17:28.401Z,52.77
2023-05-03T23:19:56.108Z,52.63
2023-05-03T23:22:23.742Z,52.58
2023-05-03T23:24:52.010Z,52.65
2023-05-03T23:27:19.692Z,52.69
2023-05-03T23:29:48.373Z,52.72
2023-05-03T23:32:16.811Z,52.84
2023-05-03T23:34:44.900Z,52.65
2023-05-03T23:37:12.548Z,52.56
2023-05-03T23:39:46.965Z,52.77
2023-05-03T23:42:14.667Z,52.50
2023-05-03T23:44:54.411Z,52.38
2023-05-03T23:47:24.315Z,52.29
2023-05-03T23:49:52.499Z,52.58
2023-05-03T23:52:20.771Z,52.41
2023-05-03T23:54:48.604Z,52.55
2023-05-03T23:57:17.197Z,52.26
2023-05-03T23:59:45.280Z,52.47
